sensor_id;sensor_type;location;lat;lon;timestamp;pressure;altitude;pressure_sealevel;temperature;humidity
49194;BME280;35029;50.804;12.866;2023-06-14T00:00:38;97597.44;;;12.83;74.86
49194;BME280;35029;50.804;12.866;2023-06-14T00:03:07;97611.94;;;12.87;75.80
49194;BME280;35029;50.804;12.866;2023-06-14T00:05:37;97611.50;;;12.90;75.72
49194;BME280;35029;50.804;12.866;2023-06-14T00:08:09;97605.16;;;12.91;75.82
49194;BME280;35029;50.804;12.866;2023-06-14T00:10:36;97609.00;;;13.02;74.84
49194;BME280;35029;50.804;12.866;2023-06-14T00:13:02;97602.50;;;12.91;74.45
49194;BME280;35029;50.804;12.866;2023-06-14T00:15:30;97604.13;;;12.92;74.60
49194;BME280;35029;50.804;12.866;2023-06-14T00:17:59;97619.50;;;12.90;75.15
49194;BME280;35029;50.804;12.866;2023-06-14T00:20:30;97616.09;;;12.76;75.65
49194;BME280;35029;50.804;12.866;2023-06-14T00:22:58;97584.88;;;12.51;75.97
49194;BME280;35029;50.804;12.866;2023-06-14T00:25:24;97608.63;;;12.53;76.20
49194;BME280;35029;50.804;12.866;2023-06-14T00:27:54;97618.06;;;12.49;76.64
49194;BME280;35029;50.804;12.866;2023-06-14T00:30:19;97603.41;;;12.26;77.14
49194;BME280;35029;50.804;12.866;2023-06-14T00:32:46;97612.59;;;12.30;77.31
49194;BME280;35029;50.804;12.866;2023-06-14T00:35:12;97613.38;;;12.31;77.67
49194;BME280;35029;50.804;12.866;2023-06-14T00:37:38;97616.25;;;12.29;77.41
49194;BME280;35029;50.804;12.866;2023-06-14T00:40:05;97584.25;;;12.04;78.14
49194;BME280;35029;50.804;12.866;2023-06-14T00:42:31;97607.91;;;12.26;77.45
49194;BME280;35029;50.804;12.866;2023-06-14T00:44:57;97615.47;;;12.29;78.12
49194;BME280;35029;50.804;12.866;2023-06-14T00:47:23;97622.78;;;12.33;78.41
49194;BME280;35029;50.804;12.866;2023-06-14T00:49:53;97612.13;;;12.40;78.03
49194;BME280;35029;50.804;12.866;2023-06-14T00:52:20;97607.84;;;12.39;77.95
49194;BME280;35029;50.804;12.866;2023-06-14T00:54:46;97603.19;;;12.28;78.27
49194;BME280;35029;50.804;12.866;2023-06-14T00:57:12;97591.56;;;12.15;78.35
49194;BME280;35029;50.804;12.866;2023-06-14T01:02:08;97613.38;;;12.38;78.18
49194;BME280;35029;50.804;12.866;2023-06-14T01:04:37;97607.44;;;12.42;77.91
49194;BME280;35029;50.804;12.866;2023-06-14T01:07:23;97599.84;;;12.46;77.97
49194;BME280;35029;50.804;12.866;2023-06-14T01:13:14;97604.34;;;12.45;77.67
49194;BME280;35029;50.804;12.866;2023-06-14T01:15:43;97609.66;;;12.45;77.47
49194;BME280;35029;50.804;12.866;2023-06-14T01:18:09;97597.88;;;12.28;77.70
49194;BME280;35029;50.804;12.866;2023-06-14T01:20:43;97608.13;;;12.17;77.78
49194;BME280;35029;50.804;12.866;2023-06-14T01:23:13;97608.97;;;12.11;79.10
49194;BME280;35029;50.804;12.866;2023-06-14T01:25:38;97605.28;;;12.12;78.78
49194;BME280;35029;50.804;12.866;2023-06-14T01:28:07;97593.25;;;11.96;79.57
49194;BME280;35029;50.804;12.866;2023-06-14T01:30:38;97577.13;;;11.78;79.71
49194;BME280;35029;50.804;12.866;2023-06-14T01:33:07;97592.81;;;11.93;79.87
49194;BME280;35029;50.804;12.866;2023-06-14T01:35:34;97601.00;;;11.78;80.15
49194;BME280;35029;50.804;12.866;2023-06-14T01:38:02;97608.19;;;11.71;80.44
49194;BME280;35029;50.804;12.866;2023-06-14T01:40:30;97593.91;;;11.58;80.01
49194;BME280;35029;50.804;12.866;2023-06-14T01:42:57;97583.09;;;11.33;80.85
49194;BME280;35029;50.804;12.866;2023-06-14T01:45:23;97586.97;;;11.30;80.92
49194;BME280;35029;50.804;12.866;2023-06-14T01:47:49;97601.66;;;11.33;81.03
49194;BME280;35029;50.804;12.866;2023-06-14T01:50:15;97601.47;;;11.35;80.87
49194;BME280;35029;50.804;12.866;2023-06-14T01:52:42;97593.69;;;11.26;80.53
49194;BME280;35029;50.804;12.866;2023-06-14T01:55:09;97590.84;;;11.21;80.64
49194;BME280;35029;50.804;12.866;2023-06-14T01:57:36;97603.47;;;11.12;80.51
49194;BME280;35029;50.804;12.866;2023-06-14T02:00:03;97562.84;;;10.78;81.34
49194;BME280;35029;50.804;12.866;2023-06-14T02:02:38;97604.28;;;10.99;81.19
49194;BME280;35029;50.804;12.866;2023-06-14T02:05:05;97602.00;;;10.90;80.92
49194;BME280;35029;50.804;12.866;2023-06-14T02:07:30;97614.06;;;10.99;81.34
49194;BME280;35029;50.804;12.866;2023-06-14T02:09:56;97594.03;;;10.83;80.85
49194;BME280;35029;50.804;12.866;2023-06-14T02:12:23;97605.84;;;10.80;80.62
49194;BME280;35029;50.804;12.866;2023-06-14T02:14:48;97610.75;;;10.83;80.84
49194;BME280;35029;50.804;12.866;2023-06-14T02:17:14;97587.25;;;10.67;80.96
49194;BME280;35029;50.804;12.866;2023-06-14T02:19:40;97610.50;;;10.65;81.45
49194;BME280;35029;50.804;12.866;2023-06-14T02:22:06;97608.88;;;10.64;82.36
49194;BME280;35029;50.804;12.866;2023-06-14T02:24:33;97577.22;;;10.49;81.07
49194;BME280;35029;50.804;12.866;2023-06-14T02:26:59;97614.59;;;10.68;81.25
49194;BME280;35029;50.804;12.866;2023-06-14T02:29:25;97606.44;;;10.62;80.72
49194;BME280;35029;50.804;12.866;2023-06-14T02:31:51;97611.50;;;10.57;80.76
49194;BME280;35029;50.804;12.866;2023-06-14T02:34:19;97604.56;;;10.56;80.94
49194;BME280;35029;50.804;12.866;2023-06-14T02:36:47;97600.28;;;10.55;79.72
49194;BME280;35029;50.804;12.866;2023-06-14T02:39:13;97603.28;;;10.45;80.44
49194;BME280;35029;50.804;12.866;2023-06-14T02:41:39;97619.72;;;10.34;80.88
49194;BME280;35029;50.804;12.866;2023-06-14T02:44:05;97618.09;;;10.33;81.08
49194;BME280;35029;50.804;12.866;2023-06-14T02:46:31;97621.75;;;10.25;81.55
49194;BME280;35029;50.804;12.866;2023-06-14T02:48:57;97619.41;;;10.15;82.11
49194;BME280;35029;50.804;12.866;2023-06-14T02:51:22;97607.19;;;10.08;82.35
49194;BME280;35029;50.804;12.866;2023-06-14T02:53:48;97593.47;;;9.97;82.94
49194;BME280;35029;50.804;12.866;2023-06-14T02:56:13;97594.91;;;10.00;81.56
49194;BME280;35029;50.804;12.866;2023-06-14T02:58:39;97616.38;;;10.12;82.10
49194;BME280;35029;50.804;12.866;2023-06-14T03:01:06;97586.06;;;9.86;81.50
49194;BME280;35029;50.804;12.866;2023-06-14T03:03:33;97609.09;;;9.92;82.18
49194;BME280;35029;50.804;12.866;2023-06-14T03:05:59;97608.53;;;9.97;82.17
49194;BME280;35029;50.804;12.866;2023-06-14T03:08:31;97630.38;;;10.06;81.76
49194;BME280;35029;50.804;12.866;2023-06-14T03:11:05;97620.94;;;9.96;83.27
49194;BME280;35029;50.804;12.866;2023-06-14T03:13:32;97628.28;;;9.94;82.32
49194;BME280;35029;50.804;12.866;2023-06-14T03:15:58;97629.88;;;9.89;83.69
49194;BME280;35029;50.804;12.866;2023-06-14T03:18:24;97633.72;;;9.86;82.68
49194;BME280;35029;50.804;12.866;2023-06-14T03:20:50;97620.25;;;9.81;83.09
49194;BME280;35029;50.804;12.866;2023-06-14T03:23:18;97641.03;;;9.84;83.88
49194;BME280;35029;50.804;12.866;2023-06-14T03:25:44;97639.78;;;9.80;83.90
49194;BME280;35029;50.804;12.866;2023-06-14T03:28:12;97644.00;;;9.74;84.66
49194;BME280;35029;50.804;12.866;2023-06-14T03:30:37;97648.59;;;9.87;84.16
49194;BME280;35029;50.804;12.866;2023-06-14T03:33:03;97638.81;;;9.88;83.56
49194;BME280;35029;50.804;12.866;2023-06-14T03:35:32;97646.41;;;9.97;83.56
49194;BME280;35029;50.804;12.866;2023-06-14T03:37:57;97646.63;;;9.96;83.74
49194;BME280;35029;50.804;12.866;2023-06-14T03:40:24;97651.72;;;9.97;84.44
49194;BME280;35029;50.804;12.866;2023-06-14T03:42:56;97654.41;;;10.04;84.88
49194;BME280;35029;50.804;12.866;2023-06-14T03:45:22;97656.84;;;10.06;84.35
49194;BME280;35029;50.804;12.866;2023-06-14T03:47:48;97633.31;;;9.89;84.72
49194;BME280;35029;50.804;12.866;2023-06-14T03:50:13;97658.91;;;10.04;85.33
49194;BME280;35029;50.804;12.866;2023-06-14T03:52:39;97665.44;;;10.08;85.95
49194;BME280;35029;50.804;12.866;2023-06-14T03:55:05;97665.84;;;10.11;85.99
49194;BME280;35029;50.804;12.866;2023-06-14T03:57:32;97667.28;;;10.14;85.65
49194;BME280;35029;50.804;12.866;2023-06-14T03:59:58;97648.91;;;10.06;87.02
49194;BME280;35029;50.804;12.866;2023-06-14T04:02:25;97647.16;;;10.13;87.31
49194;BME280;35029;50.804;12.866;2023-06-14T04:04:55;97649.81;;;10.20;86.97
49194;BME280;35029;50.804;12.866;2023-06-14T04:07:20;97664.78;;;10.34;87.47
49194;BME280;35029;50.804;12.866;2023-06-14T04:09:46;97668.28;;;10.41;87.80
49194;BME280;35029;50.804;12.866;2023-06-14T04:12:12;97655.69;;;10.43;87.67
49194;BME280;35029;50.804;12.866;2023-06-14T04:14:40;97663.63;;;10.43;88.32
49194;BME280;35029;50.804;12.866;2023-06-14T04:17:07;97671.25;;;10.60;88.87
49194;BME280;35029;50.804;12.866;2023-06-14T04:19:33;97666.38;;;10.70;89.27
49194;BME280;35029;50.804;12.866;2023-06-14T04:21:59;97675.22;;;10.84;89.17
49194;BME280;35029;50.804;12.866;2023-06-14T04:24:27;97678.72;;;10.91;89.25
49194;BME280;35029;50.804;12.866;2023-06-14T04:27:01;97666.25;;;10.78;90.25
49194;BME280;35029;50.804;12.866;2023-06-14T04:29:27;97680.41;;;11.06;91.32
49194;BME280;35029;50.804;12.866;2023-06-14T04:31:59;97663.69;;;11.19;91.17
49194;BME280;35029;50.804;12.866;2023-06-14T04:34:26;97673.13;;;11.35;90.34
49194;BME280;35029;50.804;12.866;2023-06-14T04:36:56;97658.00;;;11.35;90.87
49194;BME280;35029;50.804;12.866;2023-06-14T04:39:27;97668.63;;;11.48;90.14
49194;BME280;35029;50.804;12.866;2023-06-14T04:41:53;97669.88;;;11.59;90.67
49194;BME280;35029;50.804;12.866;2023-06-14T04:44:25;97683.34;;;11.64;90.68
49194;BME280;35029;50.804;12.866;2023-06-14T04:46:57;97682.72;;;11.62;90.25
49194;BME280;35029;50.804;12.866;2023-06-14T04:49:24;97671.31;;;11.69;90.86
49194;BME280;35029;50.804;12.866;2023-06-14T04:51:50;97680.69;;;11.91;90.08
49194;BME280;35029;50.804;12.866;2023-06-14T04:54:25;97683.56;;;11.96;89.80
49194;BME280;35029;50.804;12.866;2023-06-14T04:56:51;97686.22;;;12.03;89.23
49194;BME280;35029;50.804;12.866;2023-06-14T04:59:19;97682.56;;;12.11;89.29
49194;BME280;35029;50.804;12.866;2023-06-14T05:01:45;97671.31;;;11.95;89.20
49194;BME280;35029;50.804;12.866;2023-06-14T05:04:18;97696.66;;;12.11;87.93
49194;BME280;35029;50.804;12.866;2023-06-14T05:06:44;97700.72;;;12.14;87.96
49194;BME280;35029;50.804;12.866;2023-06-14T05:09:12;97695.22;;;12.09;87.53
49194;BME280;35029;50.804;12.866;2023-06-14T05:11:38;97704.63;;;12.05;87.38
49194;BME280;35029;50.804;12.866;2023-06-14T05:14:04;97711.78;;;11.97;86.14
49194;BME280;35029;50.804;12.866;2023-06-14T05:16:29;97708.91;;;12.06;88.51
49194;BME280;35029;50.804;12.866;2023-06-14T05:18:55;97708.06;;;12.25;88.26
49194;BME280;35029;50.804;12.866;2023-06-14T05:21:21;97709.91;;;12.38;87.40
49194;BME280;35029;50.804;12.866;2023-06-14T05:23:46;97704.16;;;12.41;86.71
49194;BME280;35029;50.804;12.866;2023-06-14T05:26:12;97707.41;;;12.50;85.85
49194;BME280;35029;50.804;12.866;2023-06-14T05:28:37;97699.41;;;12.57;85.40
49194;BME280;35029;50.804;12.866;2023-06-14T05:31:03;97704.50;;;12.65;83.97
49194;BME280;35029;50.804;12.866;2023-06-14T05:33:28;97714.56;;;12.56;83.95
49194;BME280;35029;50.804;12.866;2023-06-14T05:35:54;97707.16;;;12.58;83.98
49194;BME280;35029;50.804;12.866;2023-06-14T05:38:20;97714.78;;;12.48;84.77
49194;BME280;35029;50.804;12.866;2023-06-14T05:40:46;97710.69;;;12.52;85.53
49194;BME280;35029;50.804;12.866;2023-06-14T05:43:12;97714.34;;;12.51;86.07
49194;BME280;35029;50.804;12.866;2023-06-14T05:45:38;97733.31;;;12.75;86.48
49194;BME280;35029;50.804;12.866;2023-06-14T05:48:03;97716.13;;;12.77;84.82
49194;BME280;35029;50.804;12.866;2023-06-14T05:50:29;97705.72;;;12.69;83.78
49194;BME280;35029;50.804;12.866;2023-06-14T05:52:55;97724.66;;;12.93;83.92
49194;BME280;35029;50.804;12.866;2023-06-14T05:55:20;97722.34;;;13.03;84.21
49194;BME280;35029;50.804;12.866;2023-06-14T05:57:47;97732.53;;;13.13;83.86
49194;BME280;35029;50.804;12.866;2023-06-14T06:00:14;97714.72;;;13.20;83.61
49194;BME280;35029;50.804;12.866;2023-06-14T06:02:44;97726.56;;;13.24;82.26
49194;BME280;35029;50.804;12.866;2023-06-14T06:05:10;97728.59;;;13.29;83.31
49194;BME280;35029;50.804;12.866;2023-06-14T06:07:37;97729.47;;;13.61;83.97
49194;BME280;35029;50.804;12.866;2023-06-14T06:10:05;97730.41;;;13.74;80.99
49194;BME280;35029;50.804;12.866;2023-06-14T06:12:31;97727.72;;;13.74;80.74
49194;BME280;35029;50.804;12.866;2023-06-14T06:14:58;97730.22;;;13.68;80.58
49194;BME280;35029;50.804;12.866;2023-06-14T06:17:25;97708.41;;;13.53;80.82
49194;BME280;35029;50.804;12.866;2023-06-14T06:19:50;97728.25;;;13.82;81.06
49194;BME280;35029;50.804;12.866;2023-06-14T06:22:16;97731.75;;;13.83;81.11
49194;BME280;35029;50.804;12.866;2023-06-14T06:24:42;97726.13;;;13.66;79.13
49194;BME280;35029;50.804;12.866;2023-06-14T06:27:08;97732.63;;;13.77;79.95
49194;BME280;35029;50.804;12.866;2023-06-14T06:29:34;97737.28;;;13.88;80.57
49194;BME280;35029;50.804;12.866;2023-06-14T06:32:00;97741.00;;;14.06;78.54
49194;BME280;35029;50.804;12.866;2023-06-14T06:34:26;97732.09;;;14.18;79.29
49194;BME280;35029;50.804;12.866;2023-06-14T06:36:53;97746.94;;;14.33;78.64
49194;BME280;35029;50.804;12.866;2023-06-14T06:39:19;97743.09;;;14.47;78.13
49194;BME280;35029;50.804;12.866;2023-06-14T06:41:54;97742.75;;;14.62;76.48
49194;BME280;35029;50.804;12.866;2023-06-14T06:44:28;97743.66;;;14.75;77.01
49194;BME280;35029;50.804;12.866;2023-06-14T06:46:58;97741.75;;;14.82;75.27
49194;BME280;35029;50.804;12.866;2023-06-14T06:49:25;97745.47;;;14.81;74.14
49194;BME280;35029;50.804;12.866;2023-06-14T06:52:01;97739.28;;;14.80;75.07
49194;BME280;35029;50.804;12.866;2023-06-14T06:54:27;97751.09;;;14.91;75.08
49194;BME280;35029;50.804;12.866;2023-06-14T06:56:53;97755.63;;;14.91;74.87
49194;BME280;35029;50.804;12.866;2023-06-14T06:59:18;97744.78;;;15.04;75.96
49194;BME280;35029;50.804;12.866;2023-06-14T07:01:44;97752.50;;;15.12;73.17
49194;BME280;35029;50.804;12.866;2023-06-14T07:04:10;97744.50;;;15.24;75.37
49194;BME280;35029;50.804;12.866;2023-06-14T07:06:35;97753.72;;;15.28;73.14
49194;BME280;35029;50.804;12.866;2023-06-14T07:09:01;97753.38;;;15.36;73.56
49194;BME280;35029;50.804;12.866;2023-06-14T07:11:27;97757.91;;;15.54;73.53
49194;BME280;35029;50.804;12.866;2023-06-14T07:13:52;97756.25;;;15.53;73.13
49194;BME280;35029;50.804;12.866;2023-06-14T07:16:18;97764.84;;;15.55;72.73
49194;BME280;35029;50.804;12.866;2023-06-14T07:18:43;97762.16;;;15.44;71.91
49194;BME280;35029;50.804;12.866;2023-06-14T07:21:09;97761.50;;;15.60;72.80
49194;BME280;35029;50.804;12.866;2023-06-14T07:23:35;97765.59;;;15.63;72.17
49194;BME280;35029;50.804;12.866;2023-06-14T07:26:00;97768.03;;;15.64;71.59
49194;BME280;35029;50.804;12.866;2023-06-14T07:28:26;97766.16;;;15.53;71.84
49194;BME280;35029;50.804;12.866;2023-06-14T07:30:51;97772.97;;;15.79;71.72
49194;BME280;35029;50.804;12.866;2023-06-14T07:33:17;97774.19;;;15.95;71.13
49194;BME280;35029;50.804;12.866;2023-06-14T07:35:43;97776.31;;;16.05;71.16
49194;BME280;35029;50.804;12.866;2023-06-14T07:38:08;97774.69;;;16.16;70.58
49194;BME280;35029;50.804;12.866;2023-06-14T07:40:34;97781.34;;;16.37;67.50
49194;BME280;35029;50.804;12.866;2023-06-14T07:42:59;97777.75;;;16.43;68.19
49194;BME280;35029;50.804;12.866;2023-06-14T07:45:26;97779.16;;;16.46;68.48
49194;BME280;35029;50.804;12.866;2023-06-14T07:47:52;97784.00;;;16.72;69.87
49194;BME280;35029;50.804;12.866;2023-06-14T07:50:17;97784.25;;;16.83;68.96
49194;BME280;35029;50.804;12.866;2023-06-14T07:52:44;97781.09;;;16.86;68.68
49194;BME280;35029;50.804;12.866;2023-06-14T07:55:10;97781.41;;;17.13;68.76
49194;BME280;35029;50.804;12.866;2023-06-14T07:57:36;97778.59;;;17.20;68.05
49194;BME280;35029;50.804;12.866;2023-06-14T08:00:02;97758.34;;;17.24;68.61
49194;BME280;35029;50.804;12.866;2023-06-14T08:02:37;97756.06;;;17.33;64.18
49194;BME280;35029;50.804;12.866;2023-06-14T08:05:03;97758.81;;;17.21;65.81
49194;BME280;35029;50.804;12.866;2023-06-14T08:07:28;97775.94;;;17.49;66.57
49194;BME280;35029;50.804;12.866;2023-06-14T08:09:54;97773.03;;;17.50;64.58
49194;BME280;35029;50.804;12.866;2023-06-14T08:12:20;97761.34;;;17.56;65.87
49194;BME280;35029;50.804;12.866;2023-06-14T08:14:45;97776.56;;;17.68;62.27
49194;BME280;35029;50.804;12.866;2023-06-14T08:17:11;97771.16;;;17.80;63.16
49194;BME280;35029;50.804;12.866;2023-06-14T08:19:36;97767.22;;;17.99;64.91
49194;BME280;35029;50.804;12.866;2023-06-14T08:22:02;97771.84;;;18.21;64.92
49194;BME280;35029;50.804;12.866;2023-06-14T08:24:29;97773.09;;;18.30;61.40
49194;BME280;35029;50.804;12.866;2023-06-14T08:26:54;97756.66;;;18.27;61.98
49194;BME280;35029;50.804;12.866;2023-06-14T08:29:20;97774.97;;;18.30;59.34
49194;BME280;35029;50.804;12.866;2023-06-14T08:31:47;97767.88;;;18.23;60.33
49194;BME280;35029;50.804;12.866;2023-06-14T08:34:12;97766.25;;;18.39;59.49
49194;BME280;35029;50.804;12.866;2023-06-14T08:36:38;97756.56;;;18.38;55.95
49194;BME280;35029;50.804;12.866;2023-06-14T08:39:03;97758.66;;;18.53;56.23
49194;BME280;35029;50.804;12.866;2023-06-14T08:41:29;97775.28;;;18.50;52.71
49194;BME280;35029;50.804;12.866;2023-06-14T08:43:56;97779.63;;;18.56;52.36
49194;BME280;35029;50.804;12.866;2023-06-14T08:46:25;97780.59;;;18.84;54.44
49194;BME280;35029;50.804;12.866;2023-06-14T08:48:55;97768.69;;;18.97;54.57
49194;BME280;35029;50.804;12.866;2023-06-14T08:51:22;97772.63;;;19.12;51.70
49194;BME280;35029;50.804;12.866;2023-06-14T08:53:54;97777.78;;;18.96;50.53
49194;BME280;35029;50.804;12.866;2023-06-14T08:56:25;97770.63;;;19.24;51.59
49194;BME280;35029;50.804;12.866;2023-06-14T08:58:51;97771.94;;;19.21;51.55
49194;BME280;35029;50.804;12.866;2023-06-14T09:01:17;97777.28;;;19.43;51.46
49194;BME280;35029;50.804;12.866;2023-06-14T09:03:44;97775.06;;;19.63;50.80
49194;BME280;35029;50.804;12.866;2023-06-14T09:06:10;97769.25;;;19.71;49.07
49194;BME280;35029;50.804;12.866;2023-06-14T09:08:42;97772.88;;;19.82;49.55
49194;BME280;35029;50.804;12.866;2023-06-14T09:11:08;97781.75;;;19.82;50.00
49194;BME280;35029;50.804;12.866;2023-06-14T09:13:34;97776.78;;;19.96;48.68
49194;BME280;35029;50.804;12.866;2023-06-14T09:16:00;97785.31;;;20.20;47.46
49194;BME280;35029;50.804;12.866;2023-06-14T09:18:36;97787.31;;;20.35;48.90
49194;BME280;35029;50.804;12.866;2023-06-14T09:21:02;97769.31;;;20.41;48.07
49194;BME280;35029;50.804;12.866;2023-06-14T09:23:27;97783.28;;;20.70;47.55
49194;BME280;35029;50.804;12.866;2023-06-14T09:25:54;97785.50;;;20.14;48.34
49194;BME280;35029;50.804;12.866;2023-06-14T09:28:19;97787.28;;;20.30;47.03
49194;BME280;35029;50.804;12.866;2023-06-14T09:30:47;97780.56;;;19.73;49.03
49194;BME280;35029;50.804;12.866;2023-06-14T09:33:17;97773.16;;;19.58;49.65
49194;BME280;35029;50.804;12.866;2023-06-14T09:35:45;97783.63;;;19.32;52.00
49194;BME280;35029;50.804;12.866;2023-06-14T09:38:11;97783.28;;;20.05;51.33
49194;BME280;35029;50.804;12.866;2023-06-14T09:40:37;97783.97;;;20.23;45.90
49194;BME280;35029;50.804;12.866;2023-06-14T09:43:06;97771.19;;;20.40;47.88
49194;BME280;35029;50.804;12.866;2023-06-14T09:45:35;97766.88;;;20.02;46.46
49194;BME280;35029;50.804;12.866;2023-06-14T09:48:01;97778.53;;;19.58;49.24
49194;BME280;35029;50.804;12.866;2023-06-14T09:50:27;97771.06;;;19.65;48.57
49194;BME280;35029;50.804;12.866;2023-06-14T09:52:57;97776.69;;;20.18;50.31
49194;BME280;35029;50.804;12.866;2023-06-14T09:55:27;97775.38;;;20.64;49.39
49194;BME280;35029;50.804;12.866;2023-06-14T09:57:56;97784.97;;;20.87;48.06
49194;BME280;35029;50.804;12.866;2023-06-14T10:00:23;97746.13;;;20.35;46.48
49194;BME280;35029;50.804;12.866;2023-06-14T10:02:54;97779.78;;;20.75;46.52
49194;BME280;35029;50.804;12.866;2023-06-14T10:05:27;97776.38;;;20.90;43.63
49194;BME280;35029;50.804;12.866;2023-06-14T10:08:00;97781.44;;;20.43;45.56
49194;BME280;35029;50.804;12.866;2023-06-14T10:10:28;97759.06;;;19.73;46.67
49194;BME280;35029;50.804;12.866;2023-06-14T10:12:54;97758.59;;;20.08;47.75
49194;BME280;35029;50.804;12.866;2023-06-14T10:16:00;97775.75;;;20.72;46.17
49194;BME280;35029;50.804;12.866;2023-06-14T10:18:38;97776.94;;;20.92;46.23
49194;BME280;35029;50.804;12.866;2023-06-14T10:21:21;97784.38;;;21.33;45.31
49194;BME280;35029;50.804;12.866;2023-06-14T10:23:49;97783.78;;;21.15;45.60
49194;BME280;35029;50.804;12.866;2023-06-14T10:26:23;97786.94;;;21.02;45.21
49194;BME280;35029;50.804;12.866;2023-06-14T10:29:01;97784.41;;;21.43;42.37
49194;BME280;35029;50.804;12.866;2023-06-14T10:31:43;97779.63;;;21.55;44.82
49194;BME280;35029;50.804;12.866;2023-06-14T10:34:10;97766.03;;;21.35;43.00
49194;BME280;35029;50.804;12.866;2023-06-14T10:36:36;97771.13;;;21.21;44.11
49194;BME280;35029;50.804;12.866;2023-06-14T10:39:15;97777.47;;;21.57;45.48
49194;BME280;35029;50.804;12.866;2023-06-14T10:41:50;97779.94;;;21.95;44.92
49194;BME280;35029;50.804;12.866;2023-06-14T10:46:49;97776.19;;;22.17;39.28
49194;BME280;35029;50.804;12.866;2023-06-14T10:49:18;97765.69;;;22.31;42.14
49194;BME280;35029;50.804;12.866;2023-06-14T10:51:46;97761.88;;;22.52;43.87
49194;BME280;35029;50.804;12.866;2023-06-14T10:54:16;97769.47;;;22.40;41.50
49194;BME280;35029;50.804;12.866;2023-06-14T10:56:49;97766.75;;;22.45;41.42
49194;BME280;35029;50.804;12.866;2023-06-14T10:59:16;97771.31;;;22.60;42.48
49194;BME280;35029;50.804;12.866;2023-06-14T11:04:16;97779.19;;;22.05;41.26
49194;BME280;35029;50.804;12.866;2023-06-14T11:06:47;97767.81;;;22.44;39.88
49194;BME280;35029;50.804;12.866;2023-06-14T11:12:15;97753.19;;;22.81;39.80
49194;BME280;35029;50.804;12.866;2023-06-14T11:14:45;97763.44;;;22.89;39.33
49194;BME280;35029;50.804;12.866;2023-06-14T11:17:12;97761.03;;;22.77;39.20
49194;BME280;35029;50.804;12.866;2023-06-14T11:19:39;97759.81;;;23.09;39.94
49194;BME280;35029;50.804;12.866;2023-06-14T11:22:04;97754.50;;;22.89;41.21
49194;BME280;35029;50.804;12.866;2023-06-14T11:24:32;97760.56;;;22.34;41.19
49194;BME280;35029;50.804;12.866;2023-06-14T11:26:58;97756.22;;;22.38;41.08
49194;BME280;35029;50.804;12.866;2023-06-14T11:29:23;97758.38;;;22.41;40.78
49194;BME280;35029;50.804;12.866;2023-06-14T11:31:50;97737.09;;;22.35;40.84
49194;BME280;35029;50.804;12.866;2023-06-14T11:34:16;97755.09;;;22.70;39.92
49194;BME280;35029;50.804;12.866;2023-06-14T11:36:42;97748.84;;;22.85;40.56
49194;BME280;35029;50.804;12.866;2023-06-14T11:39:08;97757.69;;;23.01;39.81
49194;BME280;35029;50.804;12.866;2023-06-14T11:41:44;97749.03;;;23.15;38.05
49194;BME280;35029;50.804;12.866;2023-06-14T11:44:10;97746.47;;;23.44;38.64
49194;BME280;35029;50.804;12.866;2023-06-14T11:46:37;97743.38;;;23.61;39.00
49194;BME280;35029;50.804;12.866;2023-06-14T11:49:03;97712.88;;;23.90;38.42
49194;BME280;35029;50.804;12.866;2023-06-14T11:51:33;97746.47;;;24.23;37.89
49194;BME280;35029;50.804;12.866;2023-06-14T11:54:01;97751.22;;;24.37;39.19
49194;BME280;35029;50.804;12.866;2023-06-14T11:56:28;97738.94;;;24.15;33.95
49194;BME280;35029;50.804;12.866;2023-06-14T11:58:54;97728.63;;;24.17;34.26
49194;BME280;35029;50.804;12.866;2023-06-14T12:01:22;97732.78;;;23.70;36.54
49194;BME280;35029;50.804;12.866;2023-06-14T12:03:49;97736.09;;;23.61;36.74
49194;BME280;35029;50.804;12.866;2023-06-14T12:06:15;97741.91;;;23.34;36.43
49194;BME280;35029;50.804;12.866;2023-06-14T12:08:42;97743.75;;;22.68;36.54
49194;BME280;35029;50.804;12.866;2023-06-14T12:11:12;97722.44;;;22.56;35.70
49194;BME280;35029;50.804;12.866;2023-06-14T12:13:39;97731.03;;;23.44;38.65
49194;BME280;35029;50.804;12.866;2023-06-14T12:16:09;97729.81;;;23.66;37.26
49194;BME280;35029;50.804;12.866;2023-06-14T12:18:36;97733.41;;;23.96;35.33
49194;BME280;35029;50.804;12.866;2023-06-14T12:21:06;97727.72;;;23.53;35.71
49194;BME280;35029;50.804;12.866;2023-06-14T12:23:45;97731.19;;;23.08;37.52
49194;BME280;35029;50.804;12.866;2023-06-14T12:26:18;97735.69;;;22.42;38.29
49194;BME280;35029;50.804;12.866;2023-06-14T12:28:45;97733.81;;;22.02;39.09
49194;BME280;35029;50.804;12.866;2023-06-14T12:31:12;97730.84;;;22.24;39.44
49194;BME280;35029;50.804;12.866;2023-06-14T12:33:39;97735.19;;;22.45;38.78
49194;BME280;35029;50.804;12.866;2023-06-14T12:36:07;97708.69;;;22.27;38.29
49194;BME280;35029;50.804;12.866;2023-06-14T12:38:33;97733.00;;;22.48;35.15
49194;BME280;35029;50.804;12.866;2023-06-14T12:40:58;97736.53;;;22.17;38.16
49194;BME280;35029;50.804;12.866;2023-06-14T12:43:24;97735.69;;;21.96;40.07
49194;BME280;35029;50.804;12.866;2023-06-14T12:45:50;97735.69;;;21.75;39.40
49194;BME280;35029;50.804;12.866;2023-06-14T12:48:15;97742.72;;;22.02;40.36
49194;BME280;35029;50.804;12.866;2023-06-14T12:50:41;97741.66;;;22.50;40.40
49194;BME280;35029;50.804;12.866;2023-06-14T12:53:07;97744.78;;;22.88;39.31
49194;BME280;35029;50.804;12.866;2023-06-14T12:55:33;97745.59;;;22.93;37.96
49194;BME280;35029;50.804;12.866;2023-06-14T12:57:58;97734.56;;;22.64;39.61
49194;BME280;35029;50.804;12.866;2023-06-14T13:00:24;97746.78;;;22.25;39.83
49194;BME280;35029;50.804;12.866;2023-06-14T13:02:51;97753.78;;;21.80;39.47
49194;BME280;35029;50.804;12.866;2023-06-14T13:05:17;97754.03;;;21.78;40.95